sensor_id;sensor_type;location;lat;lon;timestamp;P1;durP1;ratioP1;P2;durP2;ratioP2
75148;SDS011;63724;47.470;19.166;2023-02-28T00:00:10;18.15;;;6.88;;
75148;SDS011;63724;47.470;19.166;2023-02-28T00:03:13;18.75;;;7.80;;
75148;SDS011;63724;47.470;19.166;2023-02-28T00:06:16;15.82;;;6.57;;
75148;SDS011;63724;47.470;19.166;2023-02-28T00:09:18;13.23;;;6.35;;
75148;SDS011;63724;47.470;19.166;2023-02-28T00:12:21;15.87;;;7.27;;
75148;SDS011;63724;47.470;19.166;2023-02-28T00:15:24;18.23;;;7.80;;
75148;SDS011;63724;47.470;19.166;2023-02-28T00:18:26;14.60;;;7.80;;
75148;SDS011;63724;47.470;19.166;2023-02-28T00:21:32;15.50;;;7.40;;
75148;SDS011;63724;47.470;19.166;2023-02-28T00:24:34;17.52;;;7.22;;
75148;SDS011;63724;47.470;19.166;2023-02-28T00:27:37;17.20;;;7.83;;
75148;SDS011;63724;47.470;19.166;2023-02-28T00:30:41;16.75;;;6.70;;
75148;SDS011;63724;47.470;19.166;2023-02-28T00:33:43;18.17;;;8.27;;
75148;SDS011;63724;47.470;19.166;2023-02-28T00:36:45;14.50;;;6.97;;
75148;SDS011;63724;47.470;19.166;2023-02-28T00:39:50;14.35;;;6.85;;
75148;SDS011;63724;47.470;19.166;2023-02-28T00:42:53;14.00;;;7.10;;
75148;SDS011;63724;47.470;19.166;2023-02-28T00:45:55;15.20;;;7.13;;
75148;SDS011;63724;47.470;19.166;2023-02-28T00:48:58;13.85;;;7.35;;
75148;SDS011;63724;47.470;19.166;2023-02-28T00:52:00;13.05;;;7.20;;
75148;SDS011;63724;47.470;19.166;2023-02-28T00:55:03;18.52;;;7.88;;
75148;SDS011;63724;47.470;19.166;2023-02-28T00:58:07;15.63;;;6.97;;
75148;SDS011;63724;47.470;19.166;2023-02-28T01:01:10;11.55;;;6.53;;
75148;SDS011;63724;47.470;19.166;2023-02-28T01:04:12;15.57;;;6.85;;
75148;SDS011;63724;47.470;19.166;2023-02-28T01:07:15;14.27;;;7.43;;
75148;SDS011;63724;47.470;19.166;2023-02-28T01:10:18;16.75;;;7.68;;
75148;SDS011;63724;47.470;19.166;2023-02-28T01:13:20;15.70;;;6.97;;
75148;SDS011;63724;47.470;19.166;2023-02-28T01:16:23;14.15;;;6.72;;
75148;SDS011;63724;47.470;19.166;2023-02-28T01:19:25;14.98;;;6.60;;
75148;SDS011;63724;47.470;19.166;2023-02-28T01:22:27;18.05;;;7.13;;
75148;SDS011;63724;47.470;19.166;2023-02-28T01:25:30;11.10;;;6.43;;
75148;SDS011;63724;47.470;19.166;2023-02-28T01:28:32;11.50;;;6.53;;
75148;SDS011;63724;47.470;19.166;2023-02-28T01:31:35;24.95;;;7.90;;
75148;SDS011;63724;47.470;19.166;2023-02-28T01:34:37;25.42;;;7.72;;
75148;SDS011;63724;47.470;19.166;2023-02-28T01:37:40;22.83;;;6.72;;
75148;SDS011;63724;47.470;19.166;2023-02-28T01:40:42;18.60;;;7.00;;
75148;SDS011;63724;47.470;19.166;2023-02-28T01:46:47;13.23;;;7.13;;
75148;SDS011;63724;47.470;19.166;2023-02-28T01:49:49;15.25;;;7.78;;
75148;SDS011;63724;47.470;19.166;2023-02-28T01:52:54;13.10;;;7.38;;
75148;SDS011;63724;47.470;19.166;2023-02-28T01:55:58;12.93;;;6.75;;
75148;SDS011;63724;47.470;19.166;2023-02-28T01:59:01;16.33;;;7.10;;
75148;SDS011;63724;47.470;19.166;2023-02-28T02:02:04;15.30;;;7.28;;
75148;SDS011;63724;47.470;19.166;2023-02-28T02:05:08;12.23;;;6.50;;
75148;SDS011;63724;47.470;19.166;2023-02-28T02:08:12;14.20;;;7.45;;
75148;SDS011;63724;47.470;19.166;2023-02-28T02:11:18;14.48;;;6.80;;
75148;SDS011;63724;47.470;19.166;2023-02-28T02:17:45;12.65;;;7.13;;
75148;SDS011;63724;47.470;19.166;2023-02-28T02:40:25;15.38;;;7.38;;
75148;SDS011;63724;47.470;19.166;2023-02-28T02:43:34;16.73;;;8.55;;
75148;SDS011;63724;47.470;19.166;2023-02-28T02:46:48;13.87;;;7.03;;
75148;SDS011;63724;47.470;19.166;2023-02-28T02:49:53;20.75;;;8.88;;
75148;SDS011;63724;47.470;19.166;2023-02-28T02:52:58;17.52;;;8.98;;
75148;SDS011;63724;47.470;19.166;2023-02-28T02:56:03;15.18;;;8.20;;
75148;SDS011;63724;47.470;19.166;2023-02-28T02:59:08;15.93;;;8.25;;
75148;SDS011;63724;47.470;19.166;2023-02-28T03:02:13;18.50;;;7.57;;
75148;SDS011;63724;47.470;19.166;2023-02-28T03:05:18;18.77;;;8.25;;
75148;SDS011;63724;47.470;19.166;2023-02-28T03:08:24;14.63;;;8.20;;
75148;SDS011;63724;47.470;19.166;2023-02-28T03:11:26;14.82;;;7.93;;
75148;SDS011;63724;47.470;19.166;2023-02-28T03:17:51;16.90;;;7.97;;
75148;SDS011;63724;47.470;19.166;2023-02-28T03:21:14;16.00;;;8.38;;
75148;SDS011;63724;47.470;19.166;2023-02-28T03:30:42;16.65;;;8.15;;
75148;SDS011;63724;47.470;19.166;2023-02-28T03:34:01;17.37;;;8.17;;
75148;SDS011;63724;47.470;19.166;2023-02-28T03:37:18;15.02;;;7.53;;
75148;SDS011;63724;47.470;19.166;2023-02-28T03:40:23;16.60;;;7.63;;
75148;SDS011;63724;47.470;19.166;2023-02-28T03:43:29;13.90;;;7.15;;
75148;SDS011;63724;47.470;19.166;2023-02-28T03:46:34;14.90;;;7.90;;
75148;SDS011;63724;47.470;19.166;2023-02-28T03:49:43;15.57;;;7.83;;
75148;SDS011;63724;47.470;19.166;2023-02-28T03:59:34;13.98;;;6.63;;
75148;SDS011;63724;47.470;19.166;2023-02-28T04:02:41;15.95;;;8.50;;
75148;SDS011;63724;47.470;19.166;2023-02-28T04:05:51;15.83;;;7.33;;
75148;SDS011;63724;47.470;19.166;2023-02-28T04:08:54;12.32;;;6.75;;
75148;SDS011;63724;47.470;19.166;2023-02-28T04:11:58;12.40;;;6.22;;
75148;SDS011;63724;47.470;19.166;2023-02-28T04:15:00;12.75;;;6.60;;
75148;SDS011;63724;47.470;19.166;2023-02-28T04:18:03;11.45;;;6.53;;
75148;SDS011;63724;47.470;19.166;2023-02-28T04:21:06;16.97;;;6.80;;
75148;SDS011;63724;47.470;19.166;2023-02-28T04:24:09;13.98;;;7.38;;
75148;SDS011;63724;47.470;19.166;2023-02-28T04:27:16;14.48;;;6.45;;
75148;SDS011;63724;47.470;19.166;2023-02-28T04:30:18;19.80;;;7.38;;
75148;SDS011;63724;47.470;19.166;2023-02-28T04:33:21;13.40;;;6.47;;
75148;SDS011;63724;47.470;19.166;2023-02-28T04:36:23;13.43;;;6.33;;
75148;SDS011;63724;47.470;19.166;2023-02-28T04:39:25;13.00;;;6.82;;
75148;SDS011;63724;47.470;19.166;2023-02-28T04:42:28;13.75;;;6.68;;
75148;SDS011;63724;47.470;19.166;2023-02-28T04:45:37;12.73;;;6.53;;
75148;SDS011;63724;47.470;19.166;2023-02-28T04:48:39;11.40;;;6.88;;
75148;SDS011;63724;47.470;19.166;2023-02-28T04:51:42;14.00;;;7.07;;
75148;SDS011;63724;47.470;19.166;2023-02-28T04:54:44;11.77;;;6.10;;
75148;SDS011;63724;47.470;19.166;2023-02-28T04:57:47;14.30;;;6.85;;
75148;SDS011;63724;47.470;19.166;2023-02-28T05:00:50;15.90;;;7.68;;
75148;SDS011;63724;47.470;19.166;2023-02-28T05:03:54;12.35;;;6.38;;
75148;SDS011;63724;47.470;19.166;2023-02-28T05:06:57;14.93;;;6.70;;
75148;SDS011;63724;47.470;19.166;2023-02-28T05:10:00;14.13;;;6.78;;
75148;SDS011;63724;47.470;19.166;2023-02-28T05:13:02;14.10;;;6.97;;
75148;SDS011;63724;47.470;19.166;2023-02-28T05:16:05;14.25;;;7.82;;
75148;SDS011;63724;47.470;19.166;2023-02-28T05:19:08;11.38;;;6.20;;
75148;SDS011;63724;47.470;19.166;2023-02-28T05:22:14;12.50;;;6.07;;
75148;SDS011;63724;47.470;19.166;2023-02-28T05:25:20;11.15;;;5.72;;
75148;SDS011;63724;47.470;19.166;2023-02-28T05:28:25;10.70;;;5.88;;
75148;SDS011;63724;47.470;19.166;2023-02-28T05:31:27;10.00;;;5.47;;
75148;SDS011;63724;47.470;19.166;2023-02-28T05:34:30;15.13;;;6.70;;
75148;SDS011;63724;47.470;19.166;2023-02-28T05:37:32;13.87;;;6.23;;
75148;SDS011;63724;47.470;19.166;2023-02-28T05:40:34;14.73;;;6.78;;
75148;SDS011;63724;47.470;19.166;2023-02-28T05:43:37;12.40;;;5.95;;
75148;SDS011;63724;47.470;19.166;2023-02-28T05:46:40;14.32;;;6.45;;
75148;SDS011;63724;47.470;19.166;2023-02-28T05:49:42;10.32;;;6.25;;
75148;SDS011;63724;47.470;19.166;2023-02-28T05:52:48;13.10;;;6.43;;
75148;SDS011;63724;47.470;19.166;2023-02-28T05:56:04;14.27;;;6.47;;
75148;SDS011;63724;47.470;19.166;2023-02-28T05:59:06;15.27;;;6.65;;
75148;SDS011;63724;47.470;19.166;2023-02-28T06:02:10;10.45;;;5.53;;
75148;SDS011;63724;47.470;19.166;2023-02-28T06:05:16;9.75;;;5.30;;
75148;SDS011;63724;47.470;19.166;2023-02-28T06:08:19;10.07;;;5.00;;
75148;SDS011;63724;47.470;19.166;2023-02-28T06:11:22;12.70;;;6.22;;
75148;SDS011;63724;47.470;19.166;2023-02-28T06:14:30;9.23;;;5.20;;
75148;SDS011;63724;47.470;19.166;2023-02-28T06:17:35;16.38;;;4.82;;
75148;SDS011;63724;47.470;19.166;2023-02-28T06:20:37;12.25;;;5.63;;
75148;SDS011;63724;47.470;19.166;2023-02-28T06:23:44;11.93;;;5.03;;
75148;SDS011;63724;47.470;19.166;2023-02-28T06:32:25;11.00;;;5.18;;
75148;SDS011;63724;47.470;19.166;2023-02-28T06:35:28;8.88;;;5.10;;
75148;SDS011;63724;47.470;19.166;2023-02-28T06:38:32;10.82;;;5.30;;
75148;SDS011;63724;47.470;19.166;2023-02-28T06:41:35;15.60;;;8.20;;
75148;SDS011;63724;47.470;19.166;2023-02-28T06:44:56;12.73;;;6.55;;
75148;SDS011;63724;47.470;19.166;2023-02-28T06:47:58;12.05;;;5.97;;
75148;SDS011;63724;47.470;19.166;2023-02-28T06:51:03;13.10;;;5.53;;
75148;SDS011;63724;47.470;19.166;2023-02-28T06:54:09;12.48;;;5.00;;
75148;SDS011;63724;47.470;19.166;2023-02-28T06:57:12;14.97;;;5.77;;
75148;SDS011;63724;47.470;19.166;2023-02-28T07:00:14;16.25;;;6.28;;
75148;SDS011;63724;47.470;19.166;2023-02-28T07:03:17;17.02;;;6.18;;
75148;SDS011;63724;47.470;19.166;2023-02-28T07:06:20;13.27;;;7.25;;
75148;SDS011;63724;47.470;19.166;2023-02-28T07:09:24;13.32;;;5.38;;
75148;SDS011;63724;47.470;19.166;2023-02-28T07:12:31;18.03;;;5.83;;
75148;SDS011;63724;47.470;19.166;2023-02-28T07:15:34;14.48;;;5.65;;
75148;SDS011;63724;47.470;19.166;2023-02-28T07:18:41;15.45;;;5.28;;
75148;SDS011;63724;47.470;19.166;2023-02-28T07:21:43;14.93;;;5.50;;
75148;SDS011;63724;47.470;19.166;2023-02-28T07:24:47;14.45;;;5.60;;
75148;SDS011;63724;47.470;19.166;2023-02-28T07:27:49;14.43;;;5.97;;
75148;SDS011;63724;47.470;19.166;2023-02-28T07:30:52;16.88;;;6.28;;
75148;SDS011;63724;47.470;19.166;2023-02-28T07:33:54;14.32;;;6.10;;
75148;SDS011;63724;47.470;19.166;2023-02-28T07:36:58;14.18;;;6.07;;
75148;SDS011;63724;47.470;19.166;2023-02-28T07:40:00;14.80;;;5.85;;
75148;SDS011;63724;47.470;19.166;2023-02-28T07:43:03;15.63;;;6.13;;
75148;SDS011;63724;47.470;19.166;2023-02-28T07:46:07;14.90;;;5.40;;
75148;SDS011;63724;47.470;19.166;2023-02-28T07:49:12;13.43;;;6.15;;
75148;SDS011;63724;47.470;19.166;2023-02-28T07:52:18;17.50;;;5.93;;
75148;SDS011;63724;47.470;19.166;2023-02-28T07:55:20;15.30;;;6.18;;
75148;SDS011;63724;47.470;19.166;2023-02-28T07:58:23;13.47;;;5.40;;
75148;SDS011;63724;47.470;19.166;2023-02-28T08:01:26;8.38;;;4.68;;
75148;SDS011;63724;47.470;19.166;2023-02-28T08:04:31;12.73;;;5.10;;
75148;SDS011;63724;47.470;19.166;2023-02-28T08:07:34;13.75;;;5.18;;
75148;SDS011;63724;47.470;19.166;2023-02-28T08:10:36;13.77;;;5.20;;
75148;SDS011;63724;47.470;19.166;2023-02-28T08:13:39;12.57;;;4.77;;
75148;SDS011;63724;47.470;19.166;2023-02-28T08:16:41;10.02;;;4.65;;
75148;SDS011;63724;47.470;19.166;2023-02-28T08:19:45;10.57;;;4.80;;
75148;SDS011;63724;47.470;19.166;2023-02-28T08:22:48;10.75;;;4.65;;
75148;SDS011;63724;47.470;19.166;2023-02-28T08:25:54;13.57;;;4.35;;
75148;SDS011;63724;47.470;19.166;2023-02-28T08:28:58;11.07;;;4.70;;
75148;SDS011;63724;47.470;19.166;2023-02-28T08:32:03;16.42;;;4.45;;
75148;SDS011;63724;47.470;19.166;2023-02-28T08:35:06;7.75;;;4.60;;
75148;SDS011;63724;47.470;19.166;2023-02-28T08:38:11;8.40;;;4.28;;
75148;SDS011;63724;47.470;19.166;2023-02-28T08:41:13;11.10;;;4.25;;
75148;SDS011;63724;47.470;19.166;2023-02-28T08:44:15;6.83;;;4.00;;
75148;SDS011;63724;47.470;19.166;2023-02-28T08:47:18;10.52;;;3.90;;
75148;SDS011;63724;47.470;19.166;2023-02-28T08:50:21;10.30;;;4.50;;
75148;SDS011;63724;47.470;19.166;2023-02-28T08:53:24;13.90;;;4.32;;
75148;SDS011;63724;47.470;19.166;2023-02-28T08:56:27;9.20;;;4.22;;
75148;SDS011;63724;47.470;19.166;2023-02-28T08:59:30;7.67;;;4.40;;
75148;SDS011;63724;47.470;19.166;2023-02-28T09:02:32;7.30;;;3.78;;
75148;SDS011;63724;47.470;19.166;2023-02-28T09:05:35;10.73;;;4.40;;
75148;SDS011;63724;47.470;19.166;2023-02-28T09:08:38;6.50;;;3.63;;
75148;SDS011;63724;47.470;19.166;2023-02-28T09:11:41;9.13;;;3.72;;
75148;SDS011;63724;47.470;19.166;2023-02-28T09:14:44;8.13;;;4.10;;
75148;SDS011;63724;47.470;19.166;2023-02-28T09:17:46;5.95;;;3.80;;
75148;SDS011;63724;47.470;19.166;2023-02-28T09:20:49;5.60;;;3.85;;
75148;SDS011;63724;47.470;19.166;2023-02-28T09:23:52;5.93;;;3.78;;
75148;SDS011;63724;47.470;19.166;2023-02-28T09:26:55;7.68;;;3.80;;
75148;SDS011;63724;47.470;19.166;2023-02-28T09:30:06;7.10;;;4.00;;
75148;SDS011;63724;47.470;19.166;2023-02-28T09:33:10;7.38;;;4.15;;
75148;SDS011;63724;47.470;19.166;2023-02-28T09:36:12;7.45;;;3.63;;
75148;SDS011;63724;47.470;19.166;2023-02-28T09:39:15;6.97;;;3.75;;
75148;SDS011;63724;47.470;19.166;2023-02-28T09:42:19;6.70;;;3.35;;
75148;SDS011;63724;47.470;19.166;2023-02-28T09:48:32;7.43;;;3.67;;
75148;SDS011;63724;47.470;19.166;2023-02-28T09:54:55;9.45;;;3.65;;
75148;SDS011;63724;47.470;19.166;2023-02-28T09:57:58;10.82;;;3.80;;
75148;SDS011;63724;47.470;19.166;2023-02-28T10:01:03;8.00;;;3.83;;
75148;SDS011;63724;47.470;19.166;2023-02-28T10:07:44;7.28;;;4.28;;
75148;SDS011;63724;47.470;19.166;2023-02-28T10:11:06;11.38;;;4.22;;
75148;SDS011;63724;47.470;19.166;2023-02-28T10:17:36;5.43;;;3.13;;
75148;SDS011;63724;47.470;19.166;2023-02-28T10:20:56;6.18;;;4.10;;
75148;SDS011;63724;47.470;19.166;2023-02-28T10:24:03;9.75;;;4.45;;
75148;SDS011;63724;47.470;19.166;2023-02-28T10:27:14;6.40;;;3.70;;
75148;SDS011;63724;47.470;19.166;2023-02-28T10:30:19;6.93;;;4.10;;
75148;SDS011;63724;47.470;19.166;2023-02-28T10:36:36;6.50;;;4.30;;
75148;SDS011;63724;47.470;19.166;2023-02-28T10:39:43;8.93;;;4.28;;
75148;SDS011;63724;47.470;19.166;2023-02-28T10:46:04;9.10;;;4.50;;
75148;SDS011;63724;47.470;19.166;2023-02-28T10:49:13;6.50;;;3.93;;
75148;SDS011;63724;47.470;19.166;2023-02-28T10:52:36;10.75;;;4.57;;
75148;SDS011;63724;47.470;19.166;2023-02-28T10:55:40;6.63;;;4.03;;
75148;SDS011;63724;47.470;19.166;2023-02-28T11:02:35;10.40;;;4.30;;
75148;SDS011;63724;47.470;19.166;2023-02-28T11:05:40;8.33;;;4.27;;
75148;SDS011;63724;47.470;19.166;2023-02-28T11:08:49;6.75;;;3.58;;
75148;SDS011;63724;47.470;19.166;2023-02-28T11:11:54;5.03;;;3.05;;
75148;SDS011;63724;47.470;19.166;2023-02-28T11:15:06;4.80;;;3.40;;
75148;SDS011;63724;47.470;19.166;2023-02-28T11:18:28;8.27;;;3.60;;
75148;SDS011;63724;47.470;19.166;2023-02-28T11:21:40;7.60;;;2.83;;
75148;SDS011;63724;47.470;19.166;2023-02-28T11:24:53;6.13;;;3.40;;
75148;SDS011;63724;47.470;19.166;2023-02-28T11:27:58;4.50;;;2.65;;
75148;SDS011;63724;47.470;19.166;2023-02-28T11:34:22;6.70;;;3.05;;
75148;SDS011;63724;47.470;19.166;2023-02-28T11:37:27;6.13;;;3.43;;
75148;SDS011;63724;47.470;19.166;2023-02-28T11:53:16;4.50;;;2.50;;
75148;SDS011;63724;47.470;19.166;2023-02-28T12:00:29;4.25;;;2.70;;
75148;SDS011;63724;47.470;19.166;2023-02-28T12:04:10;4.07;;;2.40;;
75148;SDS011;63724;47.470;19.166;2023-02-28T12:07:55;4.88;;;2.80;;
75148;SDS011;63724;47.470;19.166;2023-02-28T12:11:11;4.90;;;2.63;;
75148;SDS011;63724;47.470;19.166;2023-02-28T12:17:50;4.97;;;2.85;;
75148;SDS011;63724;47.470;19.166;2023-02-28T12:27:32;4.83;;;3.10;;
75148;SDS011;63724;47.470;19.166;2023-02-28T12:30:37;6.15;;;3.40;;
75148;SDS011;63724;47.470;19.166;2023-02-28T12:33:45;6.20;;;3.30;;
75148;SDS011;63724;47.470;19.166;2023-02-28T12:36:49;5.50;;;3.47;;
75148;SDS011;63724;47.470;19.166;2023-02-28T12:39:55;4.78;;;3.33;;
75148;SDS011;63724;47.470;19.166;2023-02-28T12:43:08;7.63;;;3.57;;
75148;SDS011;63724;47.470;19.166;2023-02-28T12:46:17;10.43;;;3.80;;
75148;SDS011;63724;47.470;19.166;2023-02-28T12:49:31;14.25;;;3.50;;
75148;SDS011;63724;47.470;19.166;2023-02-28T12:52:56;5.70;;;3.42;;
75148;SDS011;63724;47.470;19.166;2023-02-28T12:56:04;6.03;;;3.50;;
75148;SDS011;63724;47.470;19.166;2023-02-28T12:59:51;9.10;;;3.57;;
75148;SDS011;63724;47.470;19.166;2023-02-28T13:02:59;5.70;;;3.08;;
75148;SDS011;63724;47.470;19.166;2023-02-28T13:09:22;6.80;;;3.28;;
75148;SDS011;63724;47.470;19.166;2023-02-28T13:12:24;6.13;;;3.42;;
75148;SDS011;63724;47.470;19.166;2023-02-28T13:15:28;5.73;;;3.50;;
75148;SDS011;63724;47.470;19.166;2023-02-28T13:18:43;4.80;;;3.35;;
75148;SDS011;63724;47.470;19.166;2023-02-28T13:21:47;4.35;;;2.95;;
75148;SDS011;63724;47.470;19.166;2023-02-28T13:24:54;14.43;;;3.53;;
75148;SDS011;63724;47.470;19.166;2023-02-28T13:27:57;6.28;;;2.90;;
75148;SDS011;63724;47.470;19.166;2023-02-28T13:31:03;6.67;;;3.40;;
75148;SDS011;63724;47.470;19.166;2023-02-28T13:34:13;9.50;;;3.20;;
75148;SDS011;63724;47.470;19.166;2023-02-28T13:40:27;9.77;;;3.33;;
75148;SDS011;63724;47.470;19.166;2023-02-28T13:47:21;7.97;;;3.30;;
75148;SDS011;63724;47.470;19.166;2023-02-28T13:53:34;4.88;;;2.53;;
75148;SDS011;63724;47.470;19.166;2023-02-28T14:06:30;5.93;;;2.70;;
75148;SDS011;63724;47.470;19.166;2023-02-28T14:09:37;7.63;;;3.17;;
75148;SDS011;63724;47.470;19.166;2023-02-28T14:16:06;7.43;;;4.72;;
75148;SDS011;63724;47.470;19.166;2023-02-28T14:19:17;8.60;;;3.67;;
75148;SDS011;63724;47.470;19.166;2023-02-28T14:25:47;6.80;;;3.83;;
75148;SDS011;63724;47.470;19.166;2023-02-28T14:39:27;7.88;;;4.63;;
75148;SDS011;63724;47.470;19.166;2023-02-28T14:42:33;7.63;;;4.35;;
75148;SDS011;63724;47.470;19.166;2023-02-28T14:45:40;7.53;;;4.32;;
75148;SDS011;63724;47.470;19.166;2023-02-28T14:48:44;17.98;;;6.47;;
75148;SDS011;63724;47.470;19.166;2023-02-28T14:51:50;13.70;;;5.07;;
75148;SDS011;63724;47.470;19.166;2023-02-28T14:55:05;8.88;;;4.22;;
75148;SDS011;63724;47.470;19.166;2023-02-28T15:01:35;9.27;;;4.80;;
75148;SDS011;63724;47.470;19.166;2023-02-28T15:04:38;6.68;;;4.43;;
75148;SDS011;63724;47.470;19.166;2023-02-28T15:07:45;6.97;;;4.07;;
75148;SDS011;63724;47.470;19.166;2023-02-28T15:11:16;9.25;;;4.20;;
75148;SDS011;63724;47.470;19.166;2023-02-28T15:14:26;8.10;;;3.85;;
75148;SDS011;63724;47.470;19.166;2023-02-28T15:17:33;8.02;;;4.03;;
75148;SDS011;63724;47.470;19.166;2023-02-28T15:20:38;7.40;;;4.05;;
75148;SDS011;63724;47.470;19.166;2023-02-28T15:23:42;7.07;;;3.77;;
75148;SDS011;63724;47.470;19.166;2023-02-28T15:26:47;7.85;;;4.13;;
75148;SDS011;63724;47.470;19.166;2023-02-28T15:29:56;8.32;;;4.60;;
75148;SDS011;63724;47.470;19.166;2023-02-28T15:33:02;7.95;;;4.88;;
75148;SDS011;63724;47.470;19.166;2023-02-28T15:36:26;7.38;;;4.55;;
75148;SDS011;63724;47.470;19.166;2023-02-28T15:39:40;8.20;;;4.73;;
75148;SDS011;63724;47.470;19.166;2023-02-28T15:42:57;15.52;;;5.35;;
75148;SDS011;63724;47.470;19.166;2023-02-28T15:46:07;8.52;;;4.82;;
75148;SDS011;63724;47.470;19.166;2023-02-28T15:49:19;8.75;;;4.38;;
75148;SDS011;63724;47.470;19.166;2023-02-28T15:52:29;12.50;;;5.30;;
75148;SDS011;63724;47.470;19.166;2023-02-28T15:55:37;10.60;;;5.07;;
75148;SDS011;63724;47.470;19.166;2023-02-28T15:58:39;10.20;;;5.15;;
75148;SDS011;63724;47.470;19.166;2023-02-28T16:01:43;12.50;;;6.55;;
75148;SDS011;63724;47.470;19.166;2023-02-28T16:04:57;10.30;;;5.43;;
75148;SDS011;63724;47.470;19.166;2023-02-28T16:08:14;13.27;;;5.78;;
75148;SDS011;63724;47.470;19.166;2023-02-28T16:11:23;11.60;;;5.60;;
75148;SDS011;63724;47.470;19.166;2023-02-28T16:14:25;8.30;;;4.50;;
75148;SDS011;63724;47.470;19.166;2023-02-28T16:17:31;12.18;;;4.68;;
75148;SDS011;63724;47.470;19.166;2023-02-28T16:20:35;10.70;;;5.10;;
75148;SDS011;63724;47.470;19.166;2023-02-28T16:23:38;14.90;;;6.00;;
75148;SDS011;63724;47.470;19.166;2023-02-28T16:26:40;10.60;;;5.13;;
75148;SDS011;63724;47.470;19.166;2023-02-28T16:29:44;12.45;;;5.22;;
75148;SDS011;63724;47.470;19.166;2023-02-28T16:32:47;8.38;;;5.10;;
75148;SDS011;63724;47.470;19.166;2023-02-28T16:35:51;9.95;;;5.25;;
75148;SDS011;63724;47.470;19.166;2023-02-28T16:38:54;13.23;;;6.32;;
75148;SDS011;63724;47.470;19.166;2023-02-28T16:41:57;23.37;;;12.60;;
75148;SDS011;63724;47.470;19.166;2023-02-28T16:44:59;13.05;;;8.27;;
75148;SDS011;63724;47.470;19.166;2023-02-28T16:48:03;11.52;;;7.60;;
75148;SDS011;63724;47.470;19.166;2023-02-28T16:51:05;17.67;;;9.00;;
75148;SDS011;63724;47.470;19.166;2023-02-28T16:54:10;11.93;;;7.95;;
75148;SDS011;63724;47.470;19.166;2023-02-28T16:57:16;10.77;;;5.73;;
75148;SDS011;63724;47.470;19.166;2023-02-28T17:00:21;12.90;;;5.93;;
75148;SDS011;63724;47.470;19.166;2023-02-28T17:03:25;10.38;;;6.15;;
75148;SDS011;63724;47.470;19.166;2023-02-28T17:06:34;15.32;;;6.75;;
75148;SDS011;63724;47.470;19.166;2023-02-28T17:09:37;19.17;;;9.65;;
75148;SDS011;63724;47.470;19.166;2023-02-28T17:12:44;49.63;;;18.43;;
75148;SDS011;63724;47.470;19.166;2023-02-28T17:15:48;17.35;;;8.80;;
75148;SDS011;63724;47.470;19.166;2023-02-28T17:18:50;13.13;;;6.60;;
75148;SDS011;63724;47.470;19.166;2023-02-28T17:21:53;12.57;;;7.60;;
75148;SDS011;63724;47.470;19.166;2023-02-28T17:24:55;13.70;;;7.15;;
75148;SDS011;63724;47.470;19.166;2023-02-28T17:27:58;13.40;;;6.50;;
75148;SDS011;63724;47.470;19.166;2023-02-28T17:31:00;12.75;;;7.00;;
75148;SDS011;63724;47.470;19.166;2023-02-28T17:34:02;11.23;;;6.07;;
75148;SDS011;63724;47.470;19.166;2023-02-28T17:37:05;16.35;;;8.57;;
75148;SDS011;63724;47.470;19.166;2023-02-28T17:40:15;14.48;;;8.25;;
75148;SDS011;63724;47.470;19.166;2023-02-28T17:43:18;12.73;;;6.80;;
75148;SDS011;63724;47.470;19.166;2023-02-28T17:46:21;15.90;;;7.40;;
75148;SDS011;63724;47.470;19.166;2023-02-28T17:49:24;12.68;;;6.68;;
75148;SDS011;63724;47.470;19.166;2023-02-28T17:52:29;11.00;;;6.30;;
75148;SDS011;63724;47.470;19.166;2023-02-28T17:55:32;13.40;;;6.63;;
75148;SDS011;63724;47.470;19.166;2023-02-28T17:58:36;13.30;;;6.80;;
75148;SDS011;63724;47.470;19.166;2023-02-28T18:01:38;15.00;;;6.95;;
75148;SDS011;63724;47.470;19.166;2023-02-28T18:04:53;13.88;;;7.35;;
75148;SDS011;63724;47.470;19.166;2023-02-28T18:07:58;13.60;;;7.53;;
75148;SDS011;63724;47.470;19.166;2023-02-28T18:11:02;18.55;;;7.78;;
75148;SDS011;63724;47.470;19.166;2023-02-28T18:14:05;15.57;;;8.20;;
75148;SDS011;63724;47.470;19.166;2023-02-28T18:17:08;13.38;;;7.25;;
75148;SDS011;63724;47.470;19.166;2023-02-28T18:20:11;22.70;;;13.20;;
75148;SDS011;63724;47.470;19.166;2023-02-28T18:23:14;13.95;;;6.97;;
75148;SDS011;63724;47.470;19.166;2023-02-28T18:26:17;19.83;;;7.60;;
75148;SDS011;63724;47.470;19.166;2023-02-28T18:29:22;13.37;;;8.10;;
75148;SDS011;63724;47.470;19.166;2023-02-28T18:32:25;14.23;;;7.75;;
75148;SDS011;63724;47.470;19.166;2023-02-28T18:35:28;15.73;;;8.90;;
75148;SDS011;63724;47.470;19.166;2023-02-28T18:38:37;17.75;;;8.05;;
75148;SDS011;63724;47.470;19.166;2023-02-28T18:41:40;18.67;;;10.57;;
75148;SDS011;63724;47.470;19.166;2023-02-28T18:44:43;15.73;;;8.70;;
75148;SDS011;63724;47.470;19.166;2023-02-28T18:47:45;17.48;;;9.27;;
75148;SDS011;63724;47.470;19.166;2023-02-28T18:50:48;14.05;;;7.97;;
75148;SDS011;63724;47.470;19.166;2023-02-28T18:53:51;17.73;;;9.38;;
75148;SDS011;63724;47.470;19.166;2023-02-28T18:56:54;19.00;;;8.30;;
75148;SDS011;63724;47.470;19.166;2023-02-28T18:59:57;16.40;;;7.83;;
75148;SDS011;63724;47.470;19.166;2023-02-28T19:02:59;14.40;;;7.50;;
75148;SDS011;63724;47.470;19.166;2023-02-28T19:06:01;17.20;;;7.97;;
75148;SDS011;63724;47.470;19.166;2023-02-28T19:09:04;16.27;;;7.47;;
75148;SDS011;63724;47.470;19.166;2023-02-28T19:12:06;17.10;;;7.03;;
75148;SDS011;63724;47.470;19.166;2023-02-28T19:15:09;13.87;;;7.33;;
75148;SDS011;63724;47.470;19.166;2023-02-28T19:18:12;14.75;;;7.03;;
75148;SDS011;63724;47.470;19.166;2023-02-28T19:21:15;19.08;;;8.93;;
75148;SDS011;63724;47.470;19.166;2023-02-28T19:24:19;23.42;;;9.68;;
75148;SDS011;63724;47.470;19.166;2023-02-28T19:27:21;16.20;;;7.78;;
75148;SDS011;63724;47.470;19.166;2023-02-28T19:30:24;30.17;;;12.90;;
75148;SDS011;63724;47.470;19.166;2023-02-28T19:33:27;17.65;;;8.85;;
75148;SDS011;63724;47.470;19.166;2023-02-28T19:36:30;14.55;;;8.20;;
75148;SDS011;63724;47.470;19.166;2023-02-28T19:39:32;15.15;;;7.95;;
75148;SDS011;63724;47.470;19.166;2023-02-28T19:42:41;13.63;;;7.75;;
75148;SDS011;63724;47.470;19.166;2023-02-28T19:45:44;16.77;;;7.23;;
75148;SDS011;63724;47.470;19.166;2023-02-28T19:48:46;15.70;;;7.72;;
75148;SDS011;63724;47.470;19.166;2023-02-28T19:51:49;14.40;;;7.50;;
75148;SDS011;63724;47.470;19.166;2023-02-28T19:54:51;16.55;;;8.82;;
75148;SDS011;63724;47.470;19.166;2023-02-28T19:57:54;23.27;;;13.80;;
75148;SDS011;63724;47.470;19.166;2023-02-28T20:00:56;15.67;;;8.50;;
75148;SDS011;63724;47.470;19.166;2023-02-28T20:04:02;13.55;;;7.88;;
75148;SDS011;63724;47.470;19.166;2023-02-28T20:07:06;14.93;;;8.77;;
75148;SDS011;63724;47.470;19.166;2023-02-28T20:10:09;16.23;;;7.97;;
75148;SDS011;63724;47.470;19.166;2023-02-28T20:13:12;16.25;;;7.85;;
75148;SDS011;63724;47.470;19.166;2023-02-28T20:16:18;13.53;;;8.53;;
75148;SDS011;63724;47.470;19.166;2023-02-28T20:19:20;20.38;;;11.23;;
75148;SDS011;63724;47.470;19.166;2023-02-28T20:22:23;20.55;;;10.10;;
75148;SDS011;63724;47.470;19.166;2023-02-28T20:25:25;17.83;;;9.40;;
75148;SDS011;63724;47.470;19.166;2023-02-28T20:28:28;16.70;;;8.88;;
75148;SDS011;63724;47.470;19.166;2023-02-28T20:31:31;16.37;;;8.13;;
75148;SDS011;63724;47.470;19.166;2023-02-28T20:34:33;17.27;;;8.90;;